sensor_id;sensor_type;location;lat;lon;timestamp;P1;durP1;ratioP1;P2;durP2;ratioP2
1577;SDS011;57623;53.608;10.004;2023-09-19T00:01:03;2.23;;;2.03;;
1577;SDS011;57623;53.608;10.004;2023-09-19T00:03:33;2.30;;;2.10;;
1577;SDS011;57623;53.608;10.004;2023-09-19T00:06:05;2.80;;;2.53;;
1577;SDS011;57623;53.608;10.004;2023-09-19T00:08:34;2.90;;;2.43;;
1577;SDS011;57623;53.608;10.004;2023-09-19T00:11:02;3.00;;;1.90;;
1577;SDS011;57623;53.608;10.004;2023-09-19T00:13:30;2.80;;;2.20;;
1577;SDS011;57623;53.608;10.004;2023-09-19T00:15:58;2.73;;;2.00;;
1577;SDS011;57623;53.608;10.004;2023-09-19T00:18:26;3.60;;;2.10;;
1577;SDS011;57623;53.608;10.004;2023-09-19T00:20:58;3.10;;;2.37;;
1577;SDS011;57623;53.608;10.004;2023-09-19T00:23:28;2.20;;;1.97;;
1577;SDS011;57623;53.608;10.004;2023-09-19T00:25:58;2.60;;;2.40;;
1577;SDS011;57623;53.608;10.004;2023-09-19T00:28:27;2.20;;;2.00;;
1577;SDS011;57623;53.608;10.004;2023-09-19T00:30:56;3.87;;;2.30;;
1577;SDS011;57623;53.608;10.004;2023-09-19T00:33:27;2.43;;;2.23;;
1577;SDS011;57623;53.608;10.004;2023-09-19T00:35:56;2.13;;;1.97;;
1577;SDS011;57623;53.608;10.004;2023-09-19T00:38:24;4.93;;;2.23;;
1577;SDS011;57623;53.608;10.004;2023-09-19T00:40:55;4.23;;;2.73;;
1577;SDS011;57623;53.608;10.004;2023-09-19T00:43:26;3.17;;;2.17;;
1577;SDS011;57623;53.608;10.004;2023-09-19T00:45:55;3.73;;;2.57;;
1577;SDS011;57623;53.608;10.004;2023-09-19T00:48:25;2.83;;;2.33;;
1577;SDS011;57623;53.608;10.004;2023-09-19T00:50:55;2.43;;;2.23;;
1577;SDS011;57623;53.608;10.004;2023-09-19T00:53:26;9.80;;;3.50;;
1577;SDS011;57623;53.608;10.004;2023-09-19T00:55:55;3.80;;;2.47;;
1577;SDS011;57623;53.608;10.004;2023-09-19T00:58:23;3.23;;;2.80;;
1577;SDS011;57623;53.608;10.004;2023-09-19T01:00:51;3.50;;;2.90;;
1577;SDS011;57623;53.608;10.004;2023-09-19T01:03:20;4.73;;;3.27;;
1577;SDS011;57623;53.608;10.004;2023-09-19T01:05:49;3.83;;;2.90;;
1577;SDS011;57623;53.608;10.004;2023-09-19T01:08:18;2.90;;;2.70;;
1577;SDS011;57623;53.608;10.004;2023-09-19T01:10:46;3.23;;;2.90;;
1577;SDS011;57623;53.608;10.004;2023-09-19T01:13:23;3.13;;;2.60;;
1577;SDS011;57623;53.608;10.004;2023-09-19T01:15:59;3.23;;;2.93;;
1577;SDS011;57623;53.608;10.004;2023-09-19T01:18:35;5.53;;;2.70;;
1577;SDS011;57623;53.608;10.004;2023-09-19T01:21:11;5.30;;;3.23;;
1577;SDS011;57623;53.608;10.004;2023-09-19T01:23:53;3.07;;;2.80;;
1577;SDS011;57623;53.608;10.004;2023-09-19T01:26:54;3.40;;;2.73;;
1577;SDS011;57623;53.608;10.004;2023-09-19T01:29:37;3.50;;;3.20;;
1577;SDS011;57623;53.608;10.004;2023-09-19T01:32:08;3.60;;;3.30;;
1577;SDS011;57623;53.608;10.004;2023-09-19T01:34:45;3.20;;;2.90;;
1577;SDS011;57623;53.608;10.004;2023-09-19T01:37:17;3.70;;;3.40;;
1577;SDS011;57623;53.608;10.004;2023-09-19T01:39:47;4.10;;;3.13;;
1577;SDS011;57623;53.608;10.004;2023-09-19T01:42:25;4.07;;;3.20;;
1577;SDS011;57623;53.608;10.004;2023-09-19T01:45:03;3.47;;;2.93;;
1577;SDS011;57623;53.608;10.004;2023-09-19T01:47:38;3.83;;;2.70;;
1577;SDS011;57623;53.608;10.004;2023-09-19T01:50:17;4.80;;;2.80;;
1577;SDS011;57623;53.608;10.004;2023-09-19T01:52:54;4.60;;;2.70;;
1577;SDS011;57623;53.608;10.004;2023-09-19T01:55:27;3.23;;;2.60;;
1577;SDS011;57623;53.608;10.004;2023-09-19T01:57:58;2.80;;;2.50;;
1577;SDS011;57623;53.608;10.004;2023-09-19T02:00:35;2.53;;;2.33;;
1577;SDS011;57623;53.608;10.004;2023-09-19T02:03:12;3.40;;;2.10;;
1577;SDS011;57623;53.608;10.004;2023-09-19T02:05:41;3.70;;;2.10;;
1577;SDS011;57623;53.608;10.004;2023-09-19T02:08:15;2.77;;;1.97;;
1577;SDS011;57623;53.608;10.004;2023-09-19T02:10:44;4.20;;;2.30;;
1577;SDS011;57623;53.608;10.004;2023-09-19T02:13:15;4.07;;;2.40;;
1577;SDS011;57623;53.608;10.004;2023-09-19T02:15:45;2.80;;;2.00;;
1577;SDS011;57623;53.608;10.004;2023-09-19T02:18:15;2.23;;;2.03;;
1577;SDS011;57623;53.608;10.004;2023-09-19T02:20:43;2.67;;;2.40;;
1577;SDS011;57623;53.608;10.004;2023-09-19T02:23:12;3.10;;;2.80;;
1577;SDS011;57623;53.608;10.004;2023-09-19T02:25:41;4.40;;;3.07;;
1577;SDS011;57623;53.608;10.004;2023-09-19T02:28:10;3.37;;;3.07;;
1577;SDS011;57623;53.608;10.004;2023-09-19T02:30:38;4.63;;;3.60;;
1577;SDS011;57623;53.608;10.004;2023-09-19T02:33:06;3.30;;;2.77;;
1577;SDS011;57623;53.608;10.004;2023-09-19T02:35:36;5.10;;;3.90;;
1577;SDS011;57623;53.608;10.004;2023-09-19T02:38:04;4.17;;;3.53;;
1577;SDS011;57623;53.608;10.004;2023-09-19T02:40:37;4.63;;;3.70;;
1577;SDS011;57623;53.608;10.004;2023-09-19T02:43:06;5.73;;;4.20;;
1577;SDS011;57623;53.608;10.004;2023-09-19T02:45:35;4.10;;;3.80;;
1577;SDS011;57623;53.608;10.004;2023-09-19T02:48:03;4.83;;;4.13;;
1577;SDS011;57623;53.608;10.004;2023-09-19T02:50:33;4.97;;;3.50;;
1577;SDS011;57623;53.608;10.004;2023-09-19T02:53:03;4.47;;;4.07;;
1577;SDS011;57623;53.608;10.004;2023-09-19T02:55:32;4.43;;;3.93;;
1577;SDS011;57623;53.608;10.004;2023-09-19T02:58:01;7.13;;;4.07;;
1577;SDS011;57623;53.608;10.004;2023-09-19T03:00:31;4.30;;;3.43;;
1577;SDS011;57623;53.608;10.004;2023-09-19T03:03:00;5.13;;;3.40;;
1577;SDS011;57623;53.608;10.004;2023-09-19T03:05:28;5.13;;;3.37;;
1577;SDS011;57623;53.608;10.004;2023-09-19T03:07:57;3.53;;;3.10;;
1577;SDS011;57623;53.608;10.004;2023-09-19T03:10:28;2.80;;;2.60;;
1577;SDS011;57623;53.608;10.004;2023-09-19T03:12:57;3.00;;;2.70;;
1577;SDS011;57623;53.608;10.004;2023-09-19T03:15:26;4.47;;;2.67;;
1577;SDS011;57623;53.608;10.004;2023-09-19T03:17:54;5.27;;;3.20;;
1577;SDS011;57623;53.608;10.004;2023-09-19T03:20:22;3.90;;;2.97;;
1577;SDS011;57623;53.608;10.004;2023-09-19T03:22:50;2.70;;;2.50;;
1577;SDS011;57623;53.608;10.004;2023-09-19T03:25:18;4.63;;;2.70;;
1577;SDS011;57623;53.608;10.004;2023-09-19T03:27:51;6.23;;;2.70;;
1577;SDS011;57623;53.608;10.004;2023-09-19T03:30:19;4.57;;;2.50;;
1577;SDS011;57623;53.608;10.004;2023-09-19T03:32:47;4.00;;;2.60;;
1577;SDS011;57623;53.608;10.004;2023-09-19T03:35:17;3.67;;;2.30;;
1577;SDS011;57623;53.608;10.004;2023-09-19T03:37:46;2.60;;;2.40;;
1577;SDS011;57623;53.608;10.004;2023-09-19T03:40:14;6.53;;;3.33;;
1577;SDS011;57623;53.608;10.004;2023-09-19T03:42:43;6.00;;;2.40;;
1577;SDS011;57623;53.608;10.004;2023-09-19T03:45:12;3.37;;;2.57;;
1577;SDS011;57623;53.608;10.004;2023-09-19T03:47:42;4.37;;;2.77;;
1577;SDS011;57623;53.608;10.004;2023-09-19T03:50:10;5.87;;;3.20;;
1577;SDS011;57623;53.608;10.004;2023-09-19T03:52:38;7.37;;;2.53;;
1577;SDS011;57623;53.608;10.004;2023-09-19T03:55:06;2.80;;;2.57;;
1577;SDS011;57623;53.608;10.004;2023-09-19T03:57:36;3.80;;;2.70;;
1577;SDS011;57623;53.608;10.004;2023-09-19T04:00:05;5.60;;;3.23;;
1577;SDS011;57623;53.608;10.004;2023-09-19T04:02:39;3.17;;;2.30;;
1577;SDS011;57623;53.608;10.004;2023-09-19T04:05:07;4.00;;;2.70;;
1577;SDS011;57623;53.608;10.004;2023-09-19T04:07:37;3.13;;;2.33;;
1577;SDS011;57623;53.608;10.004;2023-09-19T04:10:05;5.50;;;2.40;;
1577;SDS011;57623;53.608;10.004;2023-09-19T04:12:35;3.17;;;2.50;;
1577;SDS011;57623;53.608;10.004;2023-09-19T04:15:03;4.17;;;2.50;;
1577;SDS011;57623;53.608;10.004;2023-09-19T04:17:32;2.07;;;1.97;;
1577;SDS011;57623;53.608;10.004;2023-09-19T04:20:02;5.33;;;2.10;;
1577;SDS011;57623;53.608;10.004;2023-09-19T04:22:33;4.27;;;1.87;;
1577;SDS011;57623;53.608;10.004;2023-09-19T04:25:01;2.07;;;1.87;;
1577;SDS011;57623;53.608;10.004;2023-09-19T04:27:30;5.07;;;2.00;;
1577;SDS011;57623;53.608;10.004;2023-09-19T04:29:58;2.80;;;2.20;;
1577;SDS011;57623;53.608;10.004;2023-09-19T04:32:27;3.20;;;2.40;;
1577;SDS011;57623;53.608;10.004;2023-09-19T04:34:56;5.90;;;2.23;;
1577;SDS011;57623;53.608;10.004;2023-09-19T04:37:28;4.60;;;2.27;;
1577;SDS011;57623;53.608;10.004;2023-09-19T04:39:56;3.30;;;1.77;;
1577;SDS011;57623;53.608;10.004;2023-09-19T04:42:24;2.83;;;1.90;;
1577;SDS011;57623;53.608;10.004;2023-09-19T04:44:52;4.20;;;2.40;;
1577;SDS011;57623;53.608;10.004;2023-09-19T04:47:20;3.90;;;1.87;;
1577;SDS011;57623;53.608;10.004;2023-09-19T04:49:49;5.17;;;2.10;;
1577;SDS011;57623;53.608;10.004;2023-09-19T04:52:17;5.60;;;2.17;;
1577;SDS011;57623;53.608;10.004;2023-09-19T04:54:48;5.50;;;2.10;;
1577;SDS011;57623;53.608;10.004;2023-09-19T04:57:16;3.47;;;1.70;;
1577;SDS011;57623;53.608;10.004;2023-09-19T04:59:44;3.17;;;2.33;;
1577;SDS011;57623;53.608;10.004;2023-09-19T05:02:12;3.20;;;1.87;;
1577;SDS011;57623;53.608;10.004;2023-09-19T05:04:40;4.73;;;2.00;;
1577;SDS011;57623;53.608;10.004;2023-09-19T05:07:08;6.47;;;2.80;;
1577;SDS011;57623;53.608;10.004;2023-09-19T05:09:36;3.23;;;2.03;;
1577;SDS011;57623;53.608;10.004;2023-09-19T05:12:06;3.77;;;2.17;;
1577;SDS011;57623;53.608;10.004;2023-09-19T05:14:37;6.50;;;2.10;;
1577;SDS011;57623;53.608;10.004;2023-09-19T05:17:06;4.20;;;1.90;;
1577;SDS011;57623;53.608;10.004;2023-09-19T05:19:35;5.67;;;2.10;;
1577;SDS011;57623;53.608;10.004;2023-09-19T05:22:03;3.50;;;1.80;;
1577;SDS011;57623;53.608;10.004;2023-09-19T05:24:33;4.60;;;2.00;;
1577;SDS011;57623;53.608;10.004;2023-09-19T05:27:01;3.40;;;2.07;;
1577;SDS011;57623;53.608;10.004;2023-09-19T05:29:32;6.17;;;2.00;;
1577;SDS011;57623;53.608;10.004;2023-09-19T05:32:00;2.80;;;1.90;;
1577;SDS011;57623;53.608;10.004;2023-09-19T05:34:30;3.77;;;2.07;;
1577;SDS011;57623;53.608;10.004;2023-09-19T05:36:58;5.00;;;2.30;;
1577;SDS011;57623;53.608;10.004;2023-09-19T05:39:26;2.90;;;2.07;;
1577;SDS011;57623;53.608;10.004;2023-09-19T05:41:54;5.57;;;2.03;;
1577;SDS011;57623;53.608;10.004;2023-09-19T05:44:23;2.10;;;1.63;;
1577;SDS011;57623;53.608;10.004;2023-09-19T05:46:53;5.57;;;1.77;;
1577;SDS011;57623;53.608;10.004;2023-09-19T05:49:23;3.60;;;1.83;;
1577;SDS011;57623;53.608;10.004;2023-09-19T05:51:51;4.43;;;2.00;;
1577;SDS011;57623;53.608;10.004;2023-09-19T05:54:21;4.87;;;2.00;;
1577;SDS011;57623;53.608;10.004;2023-09-19T05:56:48;4.50;;;2.23;;
1577;SDS011;57623;53.608;10.004;2023-09-19T05:59:18;4.30;;;2.13;;
1577;SDS011;57623;53.608;10.004;2023-09-19T06:01:47;4.40;;;2.10;;
1577;SDS011;57623;53.608;10.004;2023-09-19T06:04:16;4.97;;;2.27;;
1577;SDS011;57623;53.608;10.004;2023-09-19T06:06:45;6.07;;;1.90;;
1577;SDS011;57623;53.608;10.004;2023-09-19T06:09:14;5.00;;;2.30;;
1577;SDS011;57623;53.608;10.004;2023-09-19T06:11:43;4.90;;;3.20;;
1577;SDS011;57623;53.608;10.004;2023-09-19T06:14:11;2.87;;;1.83;;
1577;SDS011;57623;53.608;10.004;2023-09-19T06:16:39;2.83;;;2.07;;
1577;SDS011;57623;53.608;10.004;2023-09-19T06:19:08;4.10;;;2.30;;
1577;SDS011;57623;53.608;10.004;2023-09-19T06:21:37;4.10;;;2.37;;
1577;SDS011;57623;53.608;10.004;2023-09-19T06:24:06;5.80;;;2.10;;
1577;SDS011;57623;53.608;10.004;2023-09-19T06:26:34;5.70;;;2.03;;
1577;SDS011;57623;53.608;10.004;2023-09-19T06:29:02;3.90;;;2.10;;
1577;SDS011;57623;53.608;10.004;2023-09-19T06:31:33;5.50;;;2.67;;
1577;SDS011;57623;53.608;10.004;2023-09-19T06:34:01;4.07;;;2.27;;
1577;SDS011;57623;53.608;10.004;2023-09-19T06:36:30;4.93;;;2.57;;
1577;SDS011;57623;53.608;10.004;2023-09-19T06:38:59;5.47;;;2.47;;
1577;SDS011;57623;53.608;10.004;2023-09-19T06:41:30;6.60;;;2.40;;
1577;SDS011;57623;53.608;10.004;2023-09-19T06:43:58;5.50;;;2.10;;
1577;SDS011;57623;53.608;10.004;2023-09-19T06:46:26;5.53;;;2.13;;
1577;SDS011;57623;53.608;10.004;2023-09-19T06:48:59;9.50;;;2.00;;
1577;SDS011;57623;53.608;10.004;2023-09-19T06:51:27;3.83;;;2.30;;
1577;SDS011;57623;53.608;10.004;2023-09-19T06:53:56;3.07;;;2.30;;
1577;SDS011;57623;53.608;10.004;2023-09-19T06:56:26;5.40;;;2.57;;
1577;SDS011;57623;53.608;10.004;2023-09-19T06:58:54;3.30;;;1.93;;
1577;SDS011;57623;53.608;10.004;2023-09-19T07:01:22;6.87;;;2.50;;
1577;SDS011;57623;53.608;10.004;2023-09-19T07:03:50;3.80;;;2.10;;
1577;SDS011;57623;53.608;10.004;2023-09-19T07:06:19;3.93;;;2.40;;
1577;SDS011;57623;53.608;10.004;2023-09-19T07:08:47;6.80;;;2.40;;
1577;SDS011;57623;53.608;10.004;2023-09-19T07:11:16;6.67;;;2.30;;
1577;SDS011;57623;53.608;10.004;2023-09-19T07:13:46;5.17;;;2.10;;
1577;SDS011;57623;53.608;10.004;2023-09-19T07:16:14;4.13;;;2.37;;
1577;SDS011;57623;53.608;10.004;2023-09-19T07:18:54;3.93;;;2.67;;
1577;SDS011;57623;53.608;10.004;2023-09-19T07:21:22;6.33;;;2.50;;
1577;SDS011;57623;53.608;10.004;2023-09-19T07:23:50;6.47;;;2.47;;
1577;SDS011;57623;53.608;10.004;2023-09-19T07:26:18;5.77;;;2.30;;
1577;SDS011;57623;53.608;10.004;2023-09-19T07:28:48;4.70;;;2.70;;
1577;SDS011;57623;53.608;10.004;2023-09-19T07:31:16;5.57;;;2.53;;
1577;SDS011;57623;53.608;10.004;2023-09-19T07:33:44;6.37;;;2.63;;
1577;SDS011;57623;53.608;10.004;2023-09-19T07:36:12;6.33;;;2.20;;
1577;SDS011;57623;53.608;10.004;2023-09-19T07:38:41;5.73;;;2.33;;
1577;SDS011;57623;53.608;10.004;2023-09-19T07:41:09;4.03;;;2.37;;
1577;SDS011;57623;53.608;10.004;2023-09-19T07:43:37;3.93;;;1.97;;
1577;SDS011;57623;53.608;10.004;2023-09-19T07:46:08;4.53;;;2.67;;
1577;SDS011;57623;53.608;10.004;2023-09-19T07:48:36;3.73;;;2.50;;
1577;SDS011;57623;53.608;10.004;2023-09-19T07:51:05;8.40;;;2.63;;
1577;SDS011;57623;53.608;10.004;2023-09-19T07:53:34;6.70;;;2.87;;
1577;SDS011;57623;53.608;10.004;2023-09-19T07:56:04;7.80;;;2.80;;
1577;SDS011;57623;53.608;10.004;2023-09-19T07:58:33;3.17;;;2.23;;
1577;SDS011;57623;53.608;10.004;2023-09-19T08:01:03;3.47;;;2.60;;
1577;SDS011;57623;53.608;10.004;2023-09-19T08:03:34;5.13;;;2.53;;
1577;SDS011;57623;53.608;10.004;2023-09-19T08:06:07;5.13;;;2.70;;
1577;SDS011;57623;53.608;10.004;2023-09-19T08:08:35;6.23;;;2.97;;
1577;SDS011;57623;53.608;10.004;2023-09-19T08:11:04;4.80;;;3.10;;
1577;SDS011;57623;53.608;10.004;2023-09-19T08:13:38;6.27;;;3.30;;
1577;SDS011;57623;53.608;10.004;2023-09-19T08:16:09;5.63;;;3.20;;
1577;SDS011;57623;53.608;10.004;2023-09-19T08:18:39;6.93;;;2.90;;
1577;SDS011;57623;53.608;10.004;2023-09-19T08:21:07;6.23;;;2.70;;
1577;SDS011;57623;53.608;10.004;2023-09-19T08:23:37;6.83;;;3.10;;
1577;SDS011;57623;53.608;10.004;2023-09-19T08:26:05;5.70;;;3.00;;
1577;SDS011;57623;53.608;10.004;2023-09-19T08:28:34;6.37;;;3.60;;
1577;SDS011;57623;53.608;10.004;2023-09-19T08:31:03;7.07;;;3.80;;
1577;SDS011;57623;53.608;10.004;2023-09-19T08:33:32;7.40;;;3.43;;
1577;SDS011;57623;53.608;10.004;2023-09-19T08:36:01;8.63;;;3.60;;
1577;SDS011;57623;53.608;10.004;2023-09-19T08:38:31;5.00;;;3.10;;
1577;SDS011;57623;53.608;10.004;2023-09-19T08:41:05;9.77;;;3.90;;
1577;SDS011;57623;53.608;10.004;2023-09-19T08:43:34;6.93;;;3.30;;
1577;SDS011;57623;53.608;10.004;2023-09-19T08:46:03;7.63;;;2.93;;
1577;SDS011;57623;53.608;10.004;2023-09-19T08:48:39;6.00;;;3.47;;
1577;SDS011;57623;53.608;10.004;2023-09-19T08:51:12;4.60;;;3.20;;
1577;SDS011;57623;53.608;10.004;2023-09-19T08:53:47;7.70;;;2.90;;
1577;SDS011;57623;53.608;10.004;2023-09-19T08:56:19;7.40;;;3.70;;
1577;SDS011;57623;53.608;10.004;2023-09-19T08:58:50;6.40;;;3.17;;
1577;SDS011;57623;53.608;10.004;2023-09-19T09:01:21;6.20;;;3.07;;
1577;SDS011;57623;53.608;10.004;2023-09-19T09:03:52;6.40;;;2.90;;
1577;SDS011;57623;53.608;10.004;2023-09-19T09:06:22;8.03;;;3.13;;
1577;SDS011;57623;53.608;10.004;2023-09-19T09:08:51;4.50;;;3.17;;
1577;SDS011;57623;53.608;10.004;2023-09-19T09:11:19;5.83;;;2.80;;
1577;SDS011;57623;53.608;10.004;2023-09-19T09:13:51;6.33;;;3.00;;
1577;SDS011;57623;53.608;10.004;2023-09-19T09:16:19;6.27;;;2.87;;
1577;SDS011;57623;53.608;10.004;2023-09-19T09:18:47;5.83;;;3.53;;
1577;SDS011;57623;53.608;10.004;2023-09-19T09:21:20;6.50;;;3.13;;
1577;SDS011;57623;53.608;10.004;2023-09-19T09:23:49;7.47;;;3.47;;
1577;SDS011;57623;53.608;10.004;2023-09-19T09:26:22;5.90;;;3.00;;
1577;SDS011;57623;53.608;10.004;2023-09-19T09:29:09;7.90;;;2.93;;
1577;SDS011;57623;53.608;10.004;2023-09-19T09:31:37;6.37;;;3.20;;
1577;SDS011;57623;53.608;10.004;2023-09-19T09:34:09;6.73;;;3.50;;
1577;SDS011;57623;53.608;10.004;2023-09-19T09:36:41;4.63;;;2.87;;
1577;SDS011;57623;53.608;10.004;2023-09-19T09:39:10;5.47;;;2.77;;
1577;SDS011;57623;53.608;10.004;2023-09-19T09:41:45;7.67;;;2.97;;
1577;SDS011;57623;53.608;10.004;2023-09-19T09:44:14;4.67;;;2.60;;
1577;SDS011;57623;53.608;10.004;2023-09-19T09:46:44;6.93;;;3.10;;
1577;SDS011;57623;53.608;10.004;2023-09-19T09:49:47;4.60;;;2.53;;
1577;SDS011;57623;53.608;10.004;2023-09-19T09:52:22;4.00;;;2.43;;
1577;SDS011;57623;53.608;10.004;2023-09-19T09:55:01;7.17;;;3.10;;
1577;SDS011;57623;53.608;10.004;2023-09-19T09:57:32;5.10;;;2.20;;
1577;SDS011;57623;53.608;10.004;2023-09-19T10:00:02;5.10;;;2.40;;
1577;SDS011;57623;53.608;10.004;2023-09-19T10:02:46;10.17;;;2.33;;
1577;SDS011;57623;53.608;10.004;2023-09-19T10:05:15;5.53;;;2.63;;
1577;SDS011;57623;53.608;10.004;2023-09-19T10:07:50;4.17;;;2.27;;
1577;SDS011;57623;53.608;10.004;2023-09-19T10:10:29;4.53;;;2.50;;
1577;SDS011;57623;53.608;10.004;2023-09-19T10:13:05;6.93;;;2.53;;
1577;SDS011;57623;53.608;10.004;2023-09-19T10:15:38;5.67;;;2.17;;
1577;SDS011;57623;53.608;10.004;2023-09-19T10:18:10;7.53;;;2.00;;
1577;SDS011;57623;53.608;10.004;2023-09-19T10:20:44;5.10;;;2.20;;
1577;SDS011;57623;53.608;10.004;2023-09-19T10:23:16;4.70;;;2.10;;
1577;SDS011;57623;53.608;10.004;2023-09-19T10:25:49;6.30;;;2.43;;
1577;SDS011;57623;53.608;10.004;2023-09-19T10:28:19;5.03;;;2.03;;
1577;SDS011;57623;53.608;10.004;2023-09-19T10:30:49;4.80;;;2.10;;
1577;SDS011;57623;53.608;10.004;2023-09-19T10:33:20;4.10;;;2.47;;
1577;SDS011;57623;53.608;10.004;2023-09-19T10:35:50;3.83;;;1.80;;
1577;SDS011;57623;53.608;10.004;2023-09-19T10:38:22;3.53;;;2.30;;
1577;SDS011;57623;53.608;10.004;2023-09-19T10:40:51;3.37;;;2.00;;
1577;SDS011;57623;53.608;10.004;2023-09-19T10:43:21;3.70;;;2.00;;
1577;SDS011;57623;53.608;10.004;2023-09-19T10:45:53;4.67;;;2.40;;
1577;SDS011;57623;53.608;10.004;2023-09-19T10:48:30;7.03;;;2.90;;
1577;SDS011;57623;53.608;10.004;2023-09-19T10:51:02;3.87;;;2.70;;
1577;SDS011;57623;53.608;10.004;2023-09-19T10:53:41;3.53;;;2.13;;
1577;SDS011;57623;53.608;10.004;2023-09-19T10:56:16;6.33;;;2.53;;
1577;SDS011;57623;53.608;10.004;2023-09-19T10:58:48;5.10;;;1.97;;
1577;SDS011;57623;53.608;10.004;2023-09-19T11:01:17;2.97;;;2.00;;
1577;SDS011;57623;53.608;10.004;2023-09-19T11:03:47;4.93;;;2.13;;
1577;SDS011;57623;53.608;10.004;2023-09-19T11:06:19;3.20;;;1.90;;
1577;SDS011;57623;53.608;10.004;2023-09-19T11:08:53;5.70;;;2.10;;
1577;SDS011;57623;53.608;10.004;2023-09-19T11:14:16;5.93;;;2.23;;
1577;SDS011;57623;53.608;10.004;2023-09-19T11:20:18;6.30;;;2.17;;
1577;SDS011;57623;53.608;10.004;2023-09-19T11:23:17;5.80;;;1.93;;
1577;SDS011;57623;53.608;10.004;2023-09-19T11:25:46;4.33;;;2.13;;
1577;SDS011;57623;53.608;10.004;2023-09-19T11:28:31;4.30;;;1.80;;
1577;SDS011;57623;53.608;10.004;2023-09-19T11:40:46;5.10;;;1.63;;
1577;SDS011;57623;53.608;10.004;2023-09-19T11:43:30;3.53;;;1.33;;
1577;SDS011;57623;53.608;10.004;2023-09-19T11:46:08;5.30;;;1.80;;
1577;SDS011;57623;53.608;10.004;2023-09-19T11:48:40;7.07;;;2.67;;
1577;SDS011;57623;53.608;10.004;2023-09-19T11:51:14;6.10;;;1.90;;
1577;SDS011;57623;53.608;10.004;2023-09-19T11:53:48;2.70;;;1.80;;
1577;SDS011;57623;53.608;10.004;2023-09-19T11:56:19;4.33;;;1.93;;
1577;SDS011;57623;53.608;10.004;2023-09-19T11:58:50;5.80;;;1.90;;
1577;SDS011;57623;53.608;10.004;2023-09-19T12:01:22;5.70;;;2.10;;
1577;SDS011;57623;53.608;10.004;2023-09-19T12:03:55;3.73;;;2.20;;
1577;SDS011;57623;53.608;10.004;2023-09-19T12:06:24;3.80;;;2.30;;
1577;SDS011;57623;53.608;10.004;2023-09-19T12:08:53;4.60;;;2.00;;
1577;SDS011;57623;53.608;10.004;2023-09-19T12:11:27;2.90;;;1.90;;
1577;SDS011;57623;53.608;10.004;2023-09-19T12:13:56;5.13;;;2.00;;
1577;SDS011;57623;53.608;10.004;2023-09-19T12:16:26;2.50;;;2.00;;
1577;SDS011;57623;53.608;10.004;2023-09-19T12:18:57;4.07;;;2.10;;
1577;SDS011;57623;53.608;10.004;2023-09-19T12:21:26;3.93;;;2.00;;
1577;SDS011;57623;53.608;10.004;2023-09-19T12:24:04;4.00;;;2.40;;
1577;SDS011;57623;53.608;10.004;2023-09-19T12:26:40;4.43;;;2.13;;
1577;SDS011;57623;53.608;10.004;2023-09-19T12:29:13;6.70;;;2.67;;
1577;SDS011;57623;53.608;10.004;2023-09-19T12:31:47;5.77;;;2.53;;
1577;SDS011;57623;53.608;10.004;2023-09-19T12:34:21;4.40;;;2.63;;
1577;SDS011;57623;53.608;10.004;2023-09-19T12:37:03;2.60;;;2.07;;
1577;SDS011;57623;53.608;10.004;2023-09-19T12:39:38;6.63;;;3.10;;
1577;SDS011;57623;53.608;10.004;2023-09-19T12:42:09;5.20;;;2.30;;
1577;SDS011;57623;53.608;10.004;2023-09-19T12:44:40;5.37;;;2.40;;
1577;SDS011;57623;53.608;10.004;2023-09-19T12:47:11;5.70;;;3.17;;
1577;SDS011;57623;53.608;10.004;2023-09-19T12:52:43;5.93;;;2.80;;
1577;SDS011;57623;53.608;10.004;2023-09-19T12:55:20;4.60;;;2.40;;
1577;SDS011;57623;53.608;10.004;2023-09-19T13:00:42;4.83;;;2.37;;
1577;SDS011;57623;53.608;10.004;2023-09-19T13:03:12;4.33;;;2.33;;
1577;SDS011;57623;53.608;10.004;2023-09-19T13:05:51;4.20;;;2.30;;
1577;SDS011;57623;53.608;10.004;2023-09-19T13:08:24;7.57;;;2.80;;
1577;SDS011;57623;53.608;10.004;2023-09-19T13:11:03;4.00;;;2.37;;
1577;SDS011;57623;53.608;10.004;2023-09-19T13:13:38;6.30;;;2.23;;
1577;SDS011;57623;53.608;10.004;2023-09-19T13:16:08;5.60;;;2.33;;
1577;SDS011;57623;53.608;10.004;2023-09-19T13:18:44;3.30;;;2.10;;
1577;SDS011;57623;53.608;10.004;2023-09-19T13:21:13;5.23;;;2.50;;
1577;SDS011;57623;53.608;10.004;2023-09-19T13:23:51;4.87;;;2.50;;
1577;SDS011;57623;53.608;10.004;2023-09-19T13:26:20;5.13;;;2.40;;
1577;SDS011;57623;53.608;10.004;2023-09-19T13:28:50;4.37;;;2.30;;
1577;SDS011;57623;53.608;10.004;2023-09-19T13:31:18;6.30;;;2.60;;
1577;SDS011;57623;53.608;10.004;2023-09-19T13:33:47;4.33;;;2.27;;
1577;SDS011;57623;53.608;10.004;2023-09-19T13:36:16;4.90;;;2.17;;
1577;SDS011;57623;53.608;10.004;2023-09-19T13:38:45;3.50;;;1.83;;
1577;SDS011;57623;53.608;10.004;2023-09-19T13:41:15;5.60;;;2.60;;
1577;SDS011;57623;53.608;10.004;2023-09-19T13:43:43;2.87;;;2.00;;
1577;SDS011;57623;53.608;10.004;2023-09-19T13:46:16;11.97;;;2.70;;
1577;SDS011;57623;53.608;10.004;2023-09-19T13:48:51;4.80;;;2.60;;
1577;SDS011;57623;53.608;10.004;2023-09-19T13:51:21;6.40;;;2.33;;
1577;SDS011;57623;53.608;10.004;2023-09-19T13:53:50;3.80;;;2.20;;
1577;SDS011;57623;53.608;10.004;2023-09-19T13:56:18;5.23;;;2.37;;
1577;SDS011;57623;53.608;10.004;2023-09-19T13:58:46;4.73;;;2.20;;
1577;SDS011;57623;53.608;10.004;2023-09-19T14:01:14;8.20;;;2.70;;
1577;SDS011;57623;53.608;10.004;2023-09-19T14:03:43;3.80;;;2.30;;
1577;SDS011;57623;53.608;10.004;2023-09-19T14:06:13;4.00;;;1.97;;
1577;SDS011;57623;53.608;10.004;2023-09-19T14:08:41;4.33;;;2.20;;
1577;SDS011;57623;53.608;10.004;2023-09-19T14:11:10;5.10;;;2.17;;
1577;SDS011;57623;53.608;10.004;2023-09-19T14:13:38;4.13;;;2.37;;
1577;SDS011;57623;53.608;10.004;2023-09-19T14:16:07;7.20;;;2.50;;
1577;SDS011;57623;53.608;10.004;2023-09-19T14:18:35;5.03;;;2.60;;
1577;SDS011;57623;53.608;10.004;2023-09-19T14:21:05;3.87;;;2.07;;
1577;SDS011;57623;53.608;10.004;2023-09-19T14:23:34;3.63;;;2.00;;
1577;SDS011;57623;53.608;10.004;2023-09-19T14:26:03;4.57;;;2.20;;
1577;SDS011;57623;53.608;10.004;2023-09-19T14:28:32;3.43;;;1.80;;
1577;SDS011;57623;53.608;10.004;2023-09-19T14:31:03;6.07;;;2.50;;
1577;SDS011;57623;53.608;10.004;2023-09-19T14:33:33;4.97;;;2.53;;
1577;SDS011;57623;53.608;10.004;2023-09-19T14:36:06;4.67;;;2.27;;
1577;SDS011;57623;53.608;10.004;2023-09-19T14:38:35;4.80;;;2.40;;
1577;SDS011;57623;53.608;10.004;2023-09-19T14:41:04;3.90;;;2.00;;
1577;SDS011;57623;53.608;10.004;2023-09-19T14:43:33;7.20;;;2.23;;
1577;SDS011;57623;53.608;10.004;2023-09-19T14:46:04;6.50;;;2.37;;
1577;SDS011;57623;53.608;10.004;2023-09-19T14:48:34;6.63;;;2.27;;
1577;SDS011;57623;53.608;10.004;2023-09-19T14:51:02;4.87;;;2.13;;
1577;SDS011;57623;53.608;10.004;2023-09-19T14:53:31;6.70;;;2.30;;
1577;SDS011;57623;53.608;10.004;2023-09-19T14:56:00;5.63;;;2.50;;
1577;SDS011;57623;53.608;10.004;2023-09-19T14:58:30;5.30;;;2.13;;
1577;SDS011;57623;53.608;10.004;2023-09-19T15:01:02;4.50;;;2.20;;
1577;SDS011;57623;53.608;10.004;2023-09-19T15:03:31;5.57;;;2.20;;
1577;SDS011;57623;53.608;10.004;2023-09-19T15:06:00;7.03;;;2.30;;
1577;SDS011;57623;53.608;10.004;2023-09-19T15:08:28;5.07;;;2.33;;
1577;SDS011;57623;53.608;10.004;2023-09-19T15:10:58;5.67;;;2.80;;
1577;SDS011;57623;53.608;10.004;2023-09-19T15:13:30;6.60;;;2.17;;
1577;SDS011;57623;53.608;10.004;2023-09-19T15:15:58;5.27;;;2.90;;
1577;SDS011;57623;53.608;10.004;2023-09-19T15:18:27;5.40;;;2.20;;
1577;SDS011;57623;53.608;10.004;2023-09-19T15:20:56;3.97;;;1.97;;
1577;SDS011;57623;53.608;10.004;2023-09-19T15:23:24;3.70;;;2.30;;
1577;SDS011;57623;53.608;10.004;2023-09-19T15:25:59;3.30;;;2.43;;
1577;SDS011;57623;53.608;10.004;2023-09-19T15:28:27;4.43;;;2.80;;
1577;SDS011;57623;53.608;10.004;2023-09-19T15:30:59;6.20;;;2.67;;